sensor_id;sensor_type;location;lat;lon;timestamp;P1;durP1;ratioP1;P2;durP2;ratioP2
26690;SDS011;14307;51.718;8.938;2023-05-07T00:01:57;36.97;;;29.20;;
26690;SDS011;14307;51.718;8.938;2023-05-07T00:04:24;41.70;;;29.75;;
26690;SDS011;14307;51.718;8.938;2023-05-07T00:06:51;37.05;;;28.90;;
26690;SDS011;14307;51.718;8.938;2023-05-07T00:09:17;40.58;;;30.75;;
26690;SDS011;14307;51.718;8.938;2023-05-07T00:11:44;41.13;;;31.23;;
26690;SDS011;14307;51.718;8.938;2023-05-07T00:14:11;38.75;;;30.08;;
26690;SDS011;14307;51.718;8.938;2023-05-07T00:16:38;39.95;;;30.27;;
26690;SDS011;14307;51.718;8.938;2023-05-07T00:19:04;40.95;;;32.92;;
26690;SDS011;14307;51.718;8.938;2023-05-07T00:21:31;39.75;;;31.35;;
26690;SDS011;14307;51.718;8.938;2023-05-07T00:23:58;45.13;;;33.75;;
26690;SDS011;14307;51.718;8.938;2023-05-07T00:26:25;40.85;;;32.25;;
26690;SDS011;14307;51.718;8.938;2023-05-07T00:28:51;44.28;;;32.15;;
26690;SDS011;14307;51.718;8.938;2023-05-07T00:31:18;46.45;;;33.63;;
26690;SDS011;14307;51.718;8.938;2023-05-07T00:33:45;42.25;;;31.27;;
26690;SDS011;14307;51.718;8.938;2023-05-07T00:36:11;45.75;;;34.10;;
26690;SDS011;14307;51.718;8.938;2023-05-07T00:38:38;44.30;;;34.10;;
26690;SDS011;14307;51.718;8.938;2023-05-07T00:41:05;42.83;;;32.78;;
26690;SDS011;14307;51.718;8.938;2023-05-07T00:43:32;45.63;;;34.85;;
26690;SDS011;14307;51.718;8.938;2023-05-07T00:45:59;46.50;;;35.00;;
26690;SDS011;14307;51.718;8.938;2023-05-07T00:48:26;46.72;;;36.30;;
26690;SDS011;14307;51.718;8.938;2023-05-07T00:50:53;50.42;;;34.90;;
26690;SDS011;14307;51.718;8.938;2023-05-07T00:53:20;47.38;;;33.17;;
26690;SDS011;14307;51.718;8.938;2023-05-07T00:55:47;48.97;;;35.38;;
26690;SDS011;14307;51.718;8.938;2023-05-07T00:58:14;51.63;;;37.00;;
26690;SDS011;14307;51.718;8.938;2023-05-07T01:00:41;50.53;;;37.92;;
26690;SDS011;14307;51.718;8.938;2023-05-07T01:03:08;47.45;;;36.63;;
26690;SDS011;14307;51.718;8.938;2023-05-07T01:05:35;51.08;;;37.30;;
26690;SDS011;14307;51.718;8.938;2023-05-07T01:08:03;46.10;;;34.67;;
26690;SDS011;14307;51.718;8.938;2023-05-07T01:10:31;49.25;;;36.22;;
26690;SDS011;14307;51.718;8.938;2023-05-07T01:12:58;50.03;;;37.35;;
26690;SDS011;14307;51.718;8.938;2023-05-07T01:15:26;48.70;;;37.03;;
26690;SDS011;14307;51.718;8.938;2023-05-07T01:17:54;50.33;;;35.65;;
26690;SDS011;14307;51.718;8.938;2023-05-07T01:20:29;49.60;;;35.67;;
26690;SDS011;14307;51.718;8.938;2023-05-07T01:22:56;52.38;;;37.83;;
26690;SDS011;14307;51.718;8.938;2023-05-07T01:25:23;58.53;;;38.05;;
26690;SDS011;14307;51.718;8.938;2023-05-07T01:27:54;50.08;;;35.63;;
26690;SDS011;14307;51.718;8.938;2023-05-07T01:30:25;51.10;;;37.13;;
26690;SDS011;14307;51.718;8.938;2023-05-07T01:33:00;51.35;;;37.83;;
26690;SDS011;14307;51.718;8.938;2023-05-07T01:35:38;48.50;;;36.20;;
26690;SDS011;14307;51.718;8.938;2023-05-07T01:38:07;49.97;;;36.95;;
26690;SDS011;14307;51.718;8.938;2023-05-07T01:40:35;51.35;;;36.13;;
26690;SDS011;14307;51.718;8.938;2023-05-07T01:43:02;55.92;;;37.45;;
26690;SDS011;14307;51.718;8.938;2023-05-07T01:45:31;49.17;;;36.63;;
26690;SDS011;14307;51.718;8.938;2023-05-07T01:47:58;46.25;;;35.83;;
26690;SDS011;14307;51.718;8.938;2023-05-07T01:50:26;49.35;;;36.60;;
26690;SDS011;14307;51.718;8.938;2023-05-07T01:52:53;53.03;;;36.97;;
26690;SDS011;14307;51.718;8.938;2023-05-07T01:55:20;50.13;;;36.72;;
26690;SDS011;14307;51.718;8.938;2023-05-07T01:57:48;58.97;;;40.65;;
26690;SDS011;14307;51.718;8.938;2023-05-07T02:00:14;51.63;;;38.70;;
26690;SDS011;14307;51.718;8.938;2023-05-07T02:02:41;52.10;;;37.88;;
26690;SDS011;14307;51.718;8.938;2023-05-07T02:05:19;52.22;;;36.50;;
26690;SDS011;14307;51.718;8.938;2023-05-07T02:07:51;49.70;;;36.63;;
26690;SDS011;14307;51.718;8.938;2023-05-07T02:10:18;51.80;;;35.30;;
26690;SDS011;14307;51.718;8.938;2023-05-07T02:12:45;54.83;;;38.40;;
26690;SDS011;14307;51.718;8.938;2023-05-07T02:15:11;54.25;;;36.55;;
26690;SDS011;14307;51.718;8.938;2023-05-07T02:20:33;55.35;;;38.03;;
26690;SDS011;14307;51.718;8.938;2023-05-07T02:23:01;55.80;;;39.65;;
26690;SDS011;14307;51.718;8.938;2023-05-07T02:25:29;56.10;;;39.03;;
26690;SDS011;14307;51.718;8.938;2023-05-07T02:27:57;50.45;;;38.67;;
26690;SDS011;14307;51.718;8.938;2023-05-07T02:30:36;58.28;;;37.83;;
26690;SDS011;14307;51.718;8.938;2023-05-07T02:33:04;52.92;;;38.35;;
26690;SDS011;14307;51.718;8.938;2023-05-07T02:35:31;58.28;;;38.63;;
26690;SDS011;14307;51.718;8.938;2023-05-07T02:37:58;54.20;;;38.75;;
26690;SDS011;14307;51.718;8.938;2023-05-07T02:40:25;54.65;;;39.20;;
26690;SDS011;14307;51.718;8.938;2023-05-07T02:42:52;57.85;;;38.78;;
26690;SDS011;14307;51.718;8.938;2023-05-07T02:45:18;59.03;;;38.33;;
26690;SDS011;14307;51.718;8.938;2023-05-07T02:47:48;55.40;;;37.92;;
26690;SDS011;14307;51.718;8.938;2023-05-07T02:50:15;57.83;;;38.72;;
26690;SDS011;14307;51.718;8.938;2023-05-07T02:52:42;63.22;;;42.22;;
26690;SDS011;14307;51.718;8.938;2023-05-07T02:55:09;59.47;;;41.85;;
26690;SDS011;14307;51.718;8.938;2023-05-07T02:57:36;65.30;;;41.60;;
26690;SDS011;14307;51.718;8.938;2023-05-07T03:00:22;59.50;;;40.60;;
26690;SDS011;14307;51.718;8.938;2023-05-07T03:03:16;62.22;;;39.97;;
26690;SDS011;14307;51.718;8.938;2023-05-07T03:05:43;64.95;;;41.95;;
26690;SDS011;14307;51.718;8.938;2023-05-07T03:08:09;58.70;;;40.22;;
26690;SDS011;14307;51.718;8.938;2023-05-07T03:10:36;62.45;;;41.70;;
26690;SDS011;14307;51.718;8.938;2023-05-07T03:13:03;69.63;;;42.85;;
26690;SDS011;14307;51.718;8.938;2023-05-07T03:15:30;61.25;;;41.13;;
26690;SDS011;14307;51.718;8.938;2023-05-07T03:17:57;66.40;;;40.72;;
26690;SDS011;14307;51.718;8.938;2023-05-07T03:20:24;70.65;;;42.17;;
26690;SDS011;14307;51.718;8.938;2023-05-07T03:22:52;69.18;;;42.47;;
26690;SDS011;14307;51.718;8.938;2023-05-07T03:25:18;73.30;;;46.33;;
26690;SDS011;14307;51.718;8.938;2023-05-07T03:27:45;75.72;;;44.58;;
26690;SDS011;14307;51.718;8.938;2023-05-07T03:30:12;78.68;;;46.80;;
26690;SDS011;14307;51.718;8.938;2023-05-07T03:32:39;74.45;;;43.95;;
26690;SDS011;14307;51.718;8.938;2023-05-07T03:35:10;70.80;;;43.28;;
26690;SDS011;14307;51.718;8.938;2023-05-07T03:37:37;76.45;;;46.28;;
26690;SDS011;14307;51.718;8.938;2023-05-07T03:40:05;74.32;;;44.28;;
26690;SDS011;14307;51.718;8.938;2023-05-07T03:42:40;68.15;;;43.80;;
26690;SDS011;14307;51.718;8.938;2023-05-07T03:45:08;78.05;;;47.20;;
26690;SDS011;14307;51.718;8.938;2023-05-07T03:47:36;74.93;;;45.60;;
26690;SDS011;14307;51.718;8.938;2023-05-07T03:50:05;74.97;;;44.38;;
26690;SDS011;14307;51.718;8.938;2023-05-07T03:52:31;76.18;;;47.47;;
26690;SDS011;14307;51.718;8.938;2023-05-07T03:55:00;73.70;;;46.58;;
26690;SDS011;14307;51.718;8.938;2023-05-07T03:57:28;82.38;;;46.60;;
26690;SDS011;14307;51.718;8.938;2023-05-07T03:59:57;79.88;;;46.60;;
26690;SDS011;14307;51.718;8.938;2023-05-07T04:02:25;71.75;;;44.17;;
26690;SDS011;14307;51.718;8.938;2023-05-07T04:04:52;83.38;;;46.50;;
26690;SDS011;14307;51.718;8.938;2023-05-07T04:07:19;77.10;;;44.95;;
26690;SDS011;14307;51.718;8.938;2023-05-07T04:09:49;74.75;;;42.38;;
26690;SDS011;14307;51.718;8.938;2023-05-07T04:12:15;70.60;;;44.20;;
26690;SDS011;14307;51.718;8.938;2023-05-07T04:14:42;72.60;;;44.75;;
26690;SDS011;14307;51.718;8.938;2023-05-07T04:17:09;80.57;;;47.53;;
26690;SDS011;14307;51.718;8.938;2023-05-07T04:19:37;73.75;;;47.20;;
26690;SDS011;14307;51.718;8.938;2023-05-07T04:22:04;70.85;;;43.05;;
26690;SDS011;14307;51.718;8.938;2023-05-07T04:24:31;72.45;;;45.72;;
26690;SDS011;14307;51.718;8.938;2023-05-07T04:27:02;71.70;;;43.55;;
26690;SDS011;14307;51.718;8.938;2023-05-07T04:29:29;70.90;;;44.35;;
26690;SDS011;14307;51.718;8.938;2023-05-07T04:31:56;74.10;;;46.40;;
26690;SDS011;14307;51.718;8.938;2023-05-07T04:34:25;67.85;;;43.70;;
26690;SDS011;14307;51.718;8.938;2023-05-07T04:36:52;70.00;;;44.58;;
26690;SDS011;14307;51.718;8.938;2023-05-07T04:39:19;75.75;;;44.60;;
26690;SDS011;14307;51.718;8.938;2023-05-07T04:41:47;68.30;;;43.05;;
26690;SDS011;14307;51.718;8.938;2023-05-07T04:44:14;65.57;;;44.20;;
26690;SDS011;14307;51.718;8.938;2023-05-07T04:46:42;69.25;;;43.60;;
26690;SDS011;14307;51.718;8.938;2023-05-07T04:49:09;69.13;;;42.60;;
26690;SDS011;14307;51.718;8.938;2023-05-07T04:51:36;70.65;;;44.05;;
26690;SDS011;14307;51.718;8.938;2023-05-07T04:54:04;70.40;;;42.08;;
26690;SDS011;14307;51.718;8.938;2023-05-07T04:56:31;63.30;;;42.28;;
26690;SDS011;14307;51.718;8.938;2023-05-07T04:58:59;63.63;;;41.75;;
26690;SDS011;14307;51.718;8.938;2023-05-07T05:01:27;73.25;;;45.10;;
26690;SDS011;14307;51.718;8.938;2023-05-07T05:03:53;63.42;;;39.20;;
26690;SDS011;14307;51.718;8.938;2023-05-07T05:06:20;66.63;;;41.28;;
26690;SDS011;14307;51.718;8.938;2023-05-07T05:08:48;70.43;;;40.85;;
26690;SDS011;14307;51.718;8.938;2023-05-07T05:11:15;62.40;;;41.92;;
26690;SDS011;14307;51.718;8.938;2023-05-07T05:13:42;67.68;;;39.75;;
26690;SDS011;14307;51.718;8.938;2023-05-07T05:16:14;59.10;;;40.13;;
26690;SDS011;14307;51.718;8.938;2023-05-07T05:18:41;62.38;;;40.00;;
26690;SDS011;14307;51.718;8.938;2023-05-07T05:21:10;64.18;;;38.75;;
26690;SDS011;14307;51.718;8.938;2023-05-07T05:23:38;64.90;;;40.03;;
26690;SDS011;14307;51.718;8.938;2023-05-07T05:26:05;64.22;;;39.08;;
26690;SDS011;14307;51.718;8.938;2023-05-07T05:28:33;66.28;;;40.92;;
26690;SDS011;14307;51.718;8.938;2023-05-07T05:31:01;62.83;;;40.85;;
26690;SDS011;14307;51.718;8.938;2023-05-07T05:33:32;66.15;;;41.08;;
26690;SDS011;14307;51.718;8.938;2023-05-07T05:36:02;60.33;;;39.17;;
26690;SDS011;14307;51.718;8.938;2023-05-07T05:38:29;56.05;;;37.03;;
26690;SDS011;14307;51.718;8.938;2023-05-07T05:40:56;61.20;;;38.58;;
26690;SDS011;14307;51.718;8.938;2023-05-07T05:43:23;53.00;;;33.65;;
26690;SDS011;14307;51.718;8.938;2023-05-07T05:45:50;58.08;;;36.28;;
26690;SDS011;14307;51.718;8.938;2023-05-07T05:48:16;55.70;;;37.60;;
26690;SDS011;14307;51.718;8.938;2023-05-07T05:50:43;62.70;;;38.42;;
26690;SDS011;14307;51.718;8.938;2023-05-07T05:53:10;52.85;;;35.00;;
26690;SDS011;14307;51.718;8.938;2023-05-07T05:55:38;59.17;;;37.22;;
26690;SDS011;14307;51.718;8.938;2023-05-07T05:58:05;56.03;;;36.58;;
26690;SDS011;14307;51.718;8.938;2023-05-07T06:00:35;49.20;;;31.85;;
26690;SDS011;14307;51.718;8.938;2023-05-07T06:03:04;54.55;;;34.45;;
26690;SDS011;14307;51.718;8.938;2023-05-07T06:05:31;51.43;;;33.57;;
26690;SDS011;14307;51.718;8.938;2023-05-07T06:07:58;52.13;;;35.75;;
26690;SDS011;14307;51.718;8.938;2023-05-07T06:10:28;57.70;;;34.90;;
26690;SDS011;14307;51.718;8.938;2023-05-07T06:12:57;51.90;;;35.58;;
26690;SDS011;14307;51.718;8.938;2023-05-07T06:15:23;51.90;;;36.97;;
26690;SDS011;14307;51.718;8.938;2023-05-07T06:17:51;51.30;;;32.97;;
26690;SDS011;14307;51.718;8.938;2023-05-07T06:20:18;52.15;;;35.05;;
26690;SDS011;14307;51.718;8.938;2023-05-07T06:22:44;46.95;;;32.30;;
26690;SDS011;14307;51.718;8.938;2023-05-07T06:25:12;47.60;;;33.05;;
26690;SDS011;14307;51.718;8.938;2023-05-07T06:27:41;45.25;;;30.95;;
26690;SDS011;14307;51.718;8.938;2023-05-07T06:30:08;47.25;;;34.22;;
26690;SDS011;14307;51.718;8.938;2023-05-07T06:32:36;42.38;;;32.30;;
26690;SDS011;14307;51.718;8.938;2023-05-07T06:35:03;48.00;;;32.92;;
26690;SDS011;14307;51.718;8.938;2023-05-07T06:37:30;41.80;;;32.33;;
26690;SDS011;14307;51.718;8.938;2023-05-07T06:40:03;42.42;;;31.50;;
26690;SDS011;14307;51.718;8.938;2023-05-07T06:42:33;45.85;;;31.35;;
26690;SDS011;14307;51.718;8.938;2023-05-07T06:45:16;44.08;;;32.42;;
26690;SDS011;14307;51.718;8.938;2023-05-07T06:47:43;38.33;;;31.27;;
26690;SDS011;14307;51.718;8.938;2023-05-07T06:50:10;39.78;;;31.10;;
26690;SDS011;14307;51.718;8.938;2023-05-07T06:52:37;42.63;;;31.58;;
26690;SDS011;14307;51.718;8.938;2023-05-07T06:55:05;40.25;;;32.22;;
26690;SDS011;14307;51.718;8.938;2023-05-07T06:57:32;37.00;;;29.27;;
26690;SDS011;14307;51.718;8.938;2023-05-07T06:59:59;35.22;;;29.10;;
26690;SDS011;14307;51.718;8.938;2023-05-07T07:02:25;42.15;;;31.35;;
26690;SDS011;14307;51.718;8.938;2023-05-07T07:04:53;38.20;;;30.65;;
26690;SDS011;14307;51.718;8.938;2023-05-07T07:07:20;36.95;;;28.67;;
26690;SDS011;14307;51.718;8.938;2023-05-07T07:09:48;35.40;;;29.20;;
26690;SDS011;14307;51.718;8.938;2023-05-07T07:12:17;35.72;;;30.30;;
26690;SDS011;14307;51.718;8.938;2023-05-07T07:14:44;36.28;;;29.27;;
26690;SDS011;14307;51.718;8.938;2023-05-07T07:17:11;36.15;;;27.88;;
26690;SDS011;14307;51.718;8.938;2023-05-07T07:19:38;34.22;;;28.02;;
26690;SDS011;14307;51.718;8.938;2023-05-07T07:22:05;37.55;;;29.95;;
26690;SDS011;14307;51.718;8.938;2023-05-07T07:24:32;35.97;;;31.27;;
26690;SDS011;14307;51.718;8.938;2023-05-07T07:27:02;34.97;;;29.77;;
26690;SDS011;14307;51.718;8.938;2023-05-07T07:29:32;34.28;;;29.13;;
26690;SDS011;14307;51.718;8.938;2023-05-07T07:31:59;35.53;;;28.90;;
26690;SDS011;14307;51.718;8.938;2023-05-07T07:34:26;35.47;;;29.50;;
26690;SDS011;14307;51.718;8.938;2023-05-07T07:36:52;33.83;;;30.15;;
26690;SDS011;14307;51.718;8.938;2023-05-07T07:39:19;36.25;;;29.33;;
26690;SDS011;14307;51.718;8.938;2023-05-07T07:41:49;35.10;;;28.02;;
26690;SDS011;14307;51.718;8.938;2023-05-07T07:44:17;33.90;;;30.20;;
26690;SDS011;14307;51.718;8.938;2023-05-07T07:46:49;33.45;;;29.92;;
26690;SDS011;14307;51.718;8.938;2023-05-07T07:49:17;34.83;;;30.67;;
26690;SDS011;14307;51.718;8.938;2023-05-07T07:51:44;31.42;;;28.20;;
26690;SDS011;14307;51.718;8.938;2023-05-07T07:54:11;31.75;;;28.25;;
26690;SDS011;14307;51.718;8.938;2023-05-07T07:56:39;33.55;;;30.00;;
26690;SDS011;14307;51.718;8.938;2023-05-07T07:59:07;32.63;;;29.08;;
26690;SDS011;14307;51.718;8.938;2023-05-07T08:01:37;33.10;;;29.30;;
26690;SDS011;14307;51.718;8.938;2023-05-07T08:04:04;32.97;;;29.35;;
26690;SDS011;14307;51.718;8.938;2023-05-07T08:06:36;33.90;;;30.35;;
26690;SDS011;14307;51.718;8.938;2023-05-07T08:09:03;36.28;;;30.10;;
26690;SDS011;14307;51.718;8.938;2023-05-07T08:11:30;37.15;;;32.45;;
26690;SDS011;14307;51.718;8.938;2023-05-07T08:13:57;34.65;;;30.92;;
26690;SDS011;14307;51.718;8.938;2023-05-07T08:16:24;36.10;;;32.25;;
26690;SDS011;14307;51.718;8.938;2023-05-07T08:18:51;36.22;;;32.42;;
26690;SDS011;14307;51.718;8.938;2023-05-07T08:21:18;35.95;;;32.28;;
26690;SDS011;14307;51.718;8.938;2023-05-07T08:23:46;35.25;;;31.13;;
26690;SDS011;14307;51.718;8.938;2023-05-07T08:26:12;36.30;;;32.70;;
26690;SDS011;14307;51.718;8.938;2023-05-07T08:28:39;34.20;;;30.58;;
26690;SDS011;14307;51.718;8.938;2023-05-07T08:31:07;37.17;;;33.20;;
26690;SDS011;14307;51.718;8.938;2023-05-07T08:33:36;35.20;;;31.48;;
26690;SDS011;14307;51.718;8.938;2023-05-07T08:36:04;36.15;;;32.33;;
26690;SDS011;14307;51.718;8.938;2023-05-07T08:38:32;37.17;;;32.90;;
26690;SDS011;14307;51.718;8.938;2023-05-07T08:40:59;37.65;;;33.78;;
26690;SDS011;14307;51.718;8.938;2023-05-07T08:43:28;36.42;;;32.67;;
26690;SDS011;14307;51.718;8.938;2023-05-07T08:45:57;36.72;;;33.00;;
26690;SDS011;14307;51.718;8.938;2023-05-07T08:48:31;35.67;;;31.98;;
26690;SDS011;14307;51.718;8.938;2023-05-07T08:51:06;35.93;;;32.23;;
26690;SDS011;14307;51.718;8.938;2023-05-07T08:53:33;35.50;;;31.83;;
26690;SDS011;14307;51.718;8.938;2023-05-07T08:56:01;35.17;;;31.60;;
26690;SDS011;14307;51.718;8.938;2023-05-07T08:58:29;36.25;;;32.45;;
26690;SDS011;14307;51.718;8.938;2023-05-07T09:00:56;36.70;;;32.78;;
26690;SDS011;14307;51.718;8.938;2023-05-07T09:03:23;38.40;;;34.55;;
26690;SDS011;14307;51.718;8.938;2023-05-07T09:05:53;36.90;;;33.00;;
26690;SDS011;14307;51.718;8.938;2023-05-07T09:08:23;35.72;;;32.33;;
26690;SDS011;14307;51.718;8.938;2023-05-07T09:10:53;36.00;;;32.03;;
26690;SDS011;14307;51.718;8.938;2023-05-07T09:13:21;39.00;;;35.25;;
26690;SDS011;14307;51.718;8.938;2023-05-07T09:15:49;35.42;;;31.63;;
26690;SDS011;14307;51.718;8.938;2023-05-07T09:18:16;36.83;;;33.22;;
26690;SDS011;14307;51.718;8.938;2023-05-07T09:20:45;36.60;;;32.75;;
26690;SDS011;14307;51.718;8.938;2023-05-07T09:23:12;36.78;;;33.38;;
26690;SDS011;14307;51.718;8.938;2023-05-07T09:25:42;38.13;;;34.35;;
26690;SDS011;14307;51.718;8.938;2023-05-07T09:28:15;38.30;;;34.83;;
26690;SDS011;14307;51.718;8.938;2023-05-07T09:30:41;36.17;;;33.17;;
26690;SDS011;14307;51.718;8.938;2023-05-07T09:33:10;36.53;;;33.30;;
26690;SDS011;14307;51.718;8.938;2023-05-07T09:35:41;38.10;;;34.60;;
26690;SDS011;14307;51.718;8.938;2023-05-07T09:38:13;37.95;;;34.40;;
26690;SDS011;14307;51.718;8.938;2023-05-07T09:40:42;36.30;;;32.90;;
26690;SDS011;14307;51.718;8.938;2023-05-07T09:43:13;36.47;;;33.17;;
26690;SDS011;14307;51.718;8.938;2023-05-07T09:45:54;36.78;;;33.22;;
26690;SDS011;14307;51.718;8.938;2023-05-07T09:48:24;36.90;;;33.38;;
26690;SDS011;14307;51.718;8.938;2023-05-07T09:50:55;37.08;;;33.70;;
26690;SDS011;14307;51.718;8.938;2023-05-07T09:53:30;36.08;;;32.95;;
26690;SDS011;14307;51.718;8.938;2023-05-07T09:55:59;35.78;;;32.50;;
26690;SDS011;14307;51.718;8.938;2023-05-07T09:58:30;36.78;;;33.70;;
26690;SDS011;14307;51.718;8.938;2023-05-07T10:00:58;37.90;;;34.60;;
26690;SDS011;14307;51.718;8.938;2023-05-07T10:03:27;38.05;;;34.72;;
26690;SDS011;14307;51.718;8.938;2023-05-07T10:06:01;38.13;;;34.60;;
26690;SDS011;14307;51.718;8.938;2023-05-07T10:08:30;35.88;;;32.78;;
26690;SDS011;14307;51.718;8.938;2023-05-07T10:10:59;33.58;;;30.85;;
26690;SDS011;14307;51.718;8.938;2023-05-07T10:13:27;36.60;;;33.60;;
26690;SDS011;14307;51.718;8.938;2023-05-07T10:15:57;35.55;;;32.60;;
26690;SDS011;14307;51.718;8.938;2023-05-07T10:18:27;37.58;;;34.45;;
26690;SDS011;14307;51.718;8.938;2023-05-07T10:21:08;37.35;;;34.10;;
26690;SDS011;14307;51.718;8.938;2023-05-07T10:23:44;37.15;;;34.15;;
26690;SDS011;14307;51.718;8.938;2023-05-07T10:26:14;36.55;;;33.53;;
26690;SDS011;14307;51.718;8.938;2023-05-07T10:28:45;37.17;;;34.10;;
26690;SDS011;14307;51.718;8.938;2023-05-07T10:31:58;35.92;;;33.10;;
26690;SDS011;14307;51.718;8.938;2023-05-07T10:34:12;33.72;;;31.13;;
26690;SDS011;14307;51.718;8.938;2023-05-07T10:36:43;34.63;;;31.45;;
26690;SDS011;14307;51.718;8.938;2023-05-07T10:39:11;34.60;;;31.70;;
26690;SDS011;14307;51.718;8.938;2023-05-07T10:41:39;33.65;;;30.92;;
26690;SDS011;14307;51.718;8.938;2023-05-07T10:44:07;34.75;;;31.88;;
26690;SDS011;14307;51.718;8.938;2023-05-07T10:46:35;34.15;;;31.25;;
26690;SDS011;14307;51.718;8.938;2023-05-07T10:49:16;33.13;;;30.52;;
26690;SDS011;14307;51.718;8.938;2023-05-07T11:01:35;34.42;;;31.40;;
26690;SDS011;14307;51.718;8.938;2023-05-07T11:04:16;32.63;;;30.17;;
26690;SDS011;14307;51.718;8.938;2023-05-07T11:15:10;30.92;;;28.75;;
26690;SDS011;14307;51.718;8.938;2023-05-07T11:17:57;30.02;;;27.98;;
26690;SDS011;14307;51.718;8.938;2023-05-07T11:26:11;31.38;;;29.02;;
26690;SDS011;14307;51.718;8.938;2023-05-07T11:28:39;31.88;;;29.77;;
26690;SDS011;14307;51.718;8.938;2023-05-07T11:31:09;33.35;;;31.05;;
26690;SDS011;14307;51.718;8.938;2023-05-07T11:33:38;33.47;;;31.17;;
26690;SDS011;14307;51.718;8.938;2023-05-07T11:36:08;35.22;;;32.58;;
26690;SDS011;14307;51.718;8.938;2023-05-07T11:38:41;32.60;;;30.25;;
26690;SDS011;14307;51.718;8.938;2023-05-07T11:41:08;32.35;;;30.05;;
26690;SDS011;14307;51.718;8.938;2023-05-07T11:43:35;31.27;;;29.17;;
26690;SDS011;14307;51.718;8.938;2023-05-07T11:46:07;31.63;;;29.33;;
26690;SDS011;14307;51.718;8.938;2023-05-07T11:48:38;30.13;;;28.23;;
26690;SDS011;14307;51.718;8.938;2023-05-07T11:51:05;31.25;;;29.05;;
26690;SDS011;14307;51.718;8.938;2023-05-07T11:53:35;30.95;;;28.75;;
26690;SDS011;14307;51.718;8.938;2023-05-07T11:56:10;31.77;;;29.25;;
26690;SDS011;14307;51.718;8.938;2023-05-07T11:58:42;31.92;;;29.55;;
26690;SDS011;14307;51.718;8.938;2023-05-07T12:01:10;30.00;;;27.98;;
26690;SDS011;14307;51.718;8.938;2023-05-07T12:03:41;33.10;;;30.70;;
26690;SDS011;14307;51.718;8.938;2023-05-07T12:06:10;31.38;;;29.17;;
26690;SDS011;14307;51.718;8.938;2023-05-07T12:08:38;32.40;;;30.20;;
26690;SDS011;14307;51.718;8.938;2023-05-07T12:11:10;36.10;;;33.67;;
26690;SDS011;14307;51.718;8.938;2023-05-07T12:13:40;34.25;;;31.95;;
26690;SDS011;14307;51.718;8.938;2023-05-07T12:16:08;33.20;;;30.83;;
26690;SDS011;14307;51.718;8.938;2023-05-07T12:18:35;32.42;;;30.27;;
26690;SDS011;14307;51.718;8.938;2023-05-07T12:21:03;33.08;;;30.65;;
26690;SDS011;14307;51.718;8.938;2023-05-07T12:23:31;33.28;;;30.98;;
26690;SDS011;14307;51.718;8.938;2023-05-07T12:25:58;33.15;;;30.80;;
26690;SDS011;14307;51.718;8.938;2023-05-07T12:28:29;33.30;;;31.00;;
26690;SDS011;14307;51.718;8.938;2023-05-07T12:30:56;32.53;;;30.27;;
26690;SDS011;14307;51.718;8.938;2023-05-07T12:33:24;32.45;;;30.23;;
26690;SDS011;14307;51.718;8.938;2023-05-07T12:35:53;34.20;;;31.73;;
26690;SDS011;14307;51.718;8.938;2023-05-07T12:38:21;32.58;;;30.33;;
26690;SDS011;14307;51.718;8.938;2023-05-07T12:40:55;33.03;;;30.77;;
26690;SDS011;14307;51.718;8.938;2023-05-07T12:43:26;34.17;;;31.88;;
26690;SDS011;14307;51.718;8.938;2023-05-07T12:45:55;34.78;;;32.47;;
26690;SDS011;14307;51.718;8.938;2023-05-07T12:48:23;33.00;;;30.63;;
26690;SDS011;14307;51.718;8.938;2023-05-07T12:50:53;33.67;;;30.90;;
26690;SDS011;14307;51.718;8.938;2023-05-07T12:53:21;34.30;;;31.77;;
26690;SDS011;14307;51.718;8.938;2023-05-07T12:55:49;36.35;;;33.70;;
26690;SDS011;14307;51.718;8.938;2023-05-07T12:58:18;34.75;;;32.25;;
26690;SDS011;14307;51.718;8.938;2023-05-07T13:00:49;36.67;;;33.88;;
26690;SDS011;14307;51.718;8.938;2023-05-07T13:03:20;37.13;;;34.42;;
26690;SDS011;14307;51.718;8.938;2023-05-07T13:05:50;39.05;;;35.95;;
26690;SDS011;14307;51.718;8.938;2023-05-07T13:08:28;38.63;;;35.55;;
26690;SDS011;14307;51.718;8.938;2023-05-07T13:10:57;37.20;;;34.22;;
26690;SDS011;14307;51.718;8.938;2023-05-07T13:13:25;35.53;;;32.95;;
26690;SDS011;14307;51.718;8.938;2023-05-07T13:15:53;37.35;;;34.55;;
26690;SDS011;14307;51.718;8.938;2023-05-07T13:18:20;38.85;;;35.88;;
26690;SDS011;14307;51.718;8.938;2023-05-07T13:20:47;40.28;;;37.17;;
26690;SDS011;14307;51.718;8.938;2023-05-07T13:23:13;39.08;;;36.10;;
26690;SDS011;14307;51.718;8.938;2023-05-07T13:25:41;40.53;;;37.30;;
26690;SDS011;14307;51.718;8.938;2023-05-07T13:28:08;38.47;;;35.53;;
26690;SDS011;14307;51.718;8.938;2023-05-07T13:34:41;40.50;;;37.22;;
26690;SDS011;14307;51.718;8.938;2023-05-07T13:37:08;38.50;;;35.47;;
26690;SDS011;14307;51.718;8.938;2023-05-07T13:39:36;40.67;;;37.53;;
26690;SDS011;14307;51.718;8.938;2023-05-07T13:42:03;39.83;;;36.65;;
26690;SDS011;14307;51.718;8.938;2023-05-07T13:44:30;39.50;;;36.30;;
26690;SDS011;14307;51.718;8.938;2023-05-07T13:46:56;40.15;;;37.10;;
26690;SDS011;14307;51.718;8.938;2023-05-07T13:49:23;40.22;;;36.97;;
26690;SDS011;14307;51.718;8.938;2023-05-07T13:51:50;41.47;;;38.33;;
26690;SDS011;14307;51.718;8.938;2023-05-07T13:54:17;41.63;;;38.13;;
26690;SDS011;14307;51.718;8.938;2023-05-07T13:56:43;40.33;;;37.13;;
26690;SDS011;14307;51.718;8.938;2023-05-07T13:59:10;39.45;;;36.55;;
26690;SDS011;14307;51.718;8.938;2023-05-07T14:01:37;39.80;;;36.60;;
26690;SDS011;14307;51.718;8.938;2023-05-07T14:04:03;39.63;;;36.65;;
26690;SDS011;14307;51.718;8.938;2023-05-07T14:06:30;40.10;;;36.97;;
26690;SDS011;14307;51.718;8.938;2023-05-07T14:08:57;40.70;;;37.58;;
26690;SDS011;14307;51.718;8.938;2023-05-07T14:11:24;41.08;;;37.70;;
26690;SDS011;14307;51.718;8.938;2023-05-07T14:13:50;41.47;;;38.17;;
26690;SDS011;14307;51.718;8.938;2023-05-07T14:16:17;40.45;;;37.35;;
26690;SDS011;14307;51.718;8.938;2023-05-07T14:18:44;40.05;;;37.08;;
26690;SDS011;14307;51.718;8.938;2023-05-07T14:21:10;44.78;;;41.22;;
26690;SDS011;14307;51.718;8.938;2023-05-07T14:23:37;44.00;;;40.45;;
26690;SDS011;14307;51.718;8.938;2023-05-07T14:26:04;42.40;;;39.00;;
26690;SDS011;14307;51.718;8.938;2023-05-07T14:28:30;42.97;;;39.58;;
26690;SDS011;14307;51.718;8.938;2023-05-07T14:30:57;43.38;;;39.88;;
26690;SDS011;14307;51.718;8.938;2023-05-07T14:33:24;40.33;;;37.15;;
26690;SDS011;14307;51.718;8.938;2023-05-07T14:35:51;41.17;;;37.78;;
26690;SDS011;14307;51.718;8.938;2023-05-07T14:38:18;41.88;;;38.47;;
26690;SDS011;14307;51.718;8.938;2023-05-07T14:40:45;41.78;;;38.38;;
26690;SDS011;14307;51.718;8.938;2023-05-07T14:43:12;39.40;;;36.28;;
26690;SDS011;14307;51.718;8.938;2023-05-07T14:45:39;43.17;;;39.38;;
26690;SDS011;14307;51.718;8.938;2023-05-07T14:48:06;42.53;;;38.95;;
26690;SDS011;14307;51.718;8.938;2023-05-07T14:50:32;42.30;;;38.75;;
26690;SDS011;14307;51.718;8.938;2023-05-07T14:52:59;40.05;;;36.65;;
26690;SDS011;14307;51.718;8.938;2023-05-07T14:55:26;43.00;;;39.22;;
26690;SDS011;14307;51.718;8.938;2023-05-07T14:57:52;41.42;;;38.00;;
26690;SDS011;14307;51.718;8.938;2023-05-07T15:00:19;41.83;;;38.20;;